Grays, South Carolina
Current Conditions -  °F | °C
As of 8:56 PM on Sunday 25 Jan 2015 (Local Time) from KNBC Reporting Station
Clear Clear  
Wind Chill: 47°   Ceiling: Unl
Heat Index: 49°   Visibility: 10mi
Dew Point: 44°   Wind: 6mph
Humidity: 83%   Direction: 180°S
Pressure: 29.87"   Gusts: NA
Location:  32.6221°N, 81.0484°W
Report Text: KNBC 260156Z AUTO 18005KT 10SM CLR 09/07 A2987 RMK AO2 SLP115 T00940067 $
Loading
Personal Weather Stations






























Interactive Weather Map New forecast layout! Learn more

10-Day Weather Forecast

Advertisements
Track Severe Weather on mobile